createdAt,value
2022-12-20T00:02:01.291Z,6.82
2022-12-20T00:04:30.778Z,8.13
2022-12-20T00:06:58.203Z,7.90
2022-12-20T00:09:25.758Z,7.85
2022-12-20T00:11:55.253Z,7.75
2022-12-20T00:14:22.516Z,7.97
2022-12-20T00:16:54.576Z,7.38
2022-12-20T00:19:21.786Z,7.28
2022-12-20T00:21:53.730Z,7.32
2022-12-20T00:24:26.090Z,7.30
2022-12-20T00:26:53.863Z,7.25
2022-12-20T00:29:22.218Z,8.13
2022-12-20T00:31:55.039Z,7.40
2022-12-20T00:34:24.610Z,7.20
2022-12-20T00:36:54.237Z,7.18
2022-12-20T00:39:21.651Z,7.78
2022-12-20T00:41:49.212Z,7.85
2022-12-20T00:44:16.411Z,6.97
2022-12-20T00:46:43.859Z,7.85
2022-12-20T00:49:13.347Z,6.40
2022-12-20T00:51:40.453Z,6.85
2022-12-20T00:54:07.832Z,7.63
2022-12-20T00:56:37.275Z,7.32
2022-12-20T00:59:04.447Z,6.70
2022-12-20T01:01:37.013Z,6.60
2022-12-20T01:04:04.651Z,6.88
2022-12-20T01:06:34.562Z,7.35
2022-12-20T01:09:01.993Z,7.07
2022-12-20T01:11:35.239Z,7.38
2022-12-20T01:14:07.634Z,7.40
2022-12-20T01:16:38.680Z,6.20
2022-12-20T01:19:07.883Z,6.30
2022-12-20T01:21:39.890Z,6.35
2022-12-20T01:24:07.244Z,6.97
2022-12-20T01:26:34.396Z,6.93
2022-12-20T01:29:01.603Z,6.97
2022-12-20T01:31:31.866Z,7.13
2022-12-20T01:34:02.350Z,6.65
2022-12-20T01:36:32.618Z,6.78
2022-12-20T01:39:13.543Z,6.85
2022-12-20T01:41:41.931Z,6.32
2022-12-20T01:44:18.134Z,6.45
2022-12-20T01:46:49.507Z,7.20
2022-12-20T01:49:23.981Z,7.13
2022-12-20T01:52:00.338Z,7.07
2022-12-20T01:54:32.450Z,6.28
2022-12-20T01:57:06.435Z,7.10
2022-12-20T01:59:37.330Z,6.32
2022-12-20T02:04:38.410Z,6.97
2022-12-20T02:07:11.285Z,6.90
2022-12-20T02:09:39.667Z,6.82
2022-12-20T02:12:14.951Z,6.90
2022-12-20T02:15:07.323Z,6.95
2022-12-20T02:17:58.379Z,6.60
2022-12-20T02:20:50.053Z,6.68
2022-12-20T02:23:46.644Z,6.15
2022-12-20T02:26:20.030Z,6.32
2022-12-20T02:29:15.435Z,6.15
2022-12-20T02:32:08.135Z,6.78
2022-12-20T02:34:38.132Z,5.97
2022-12-20T02:37:06.323Z,6.68
2022-12-20T02:39:40.302Z,6.15
2022-12-20T02:42:10.951Z,6.80
2022-12-20T02:45:03.157Z,5.78
2022-12-20T02:47:34.978Z,5.80
2022-12-20T02:50:07.235Z,6.63
2022-12-20T02:52:35.224Z,5.68
2022-12-20T02:55:04.584Z,6.28
2022-12-20T03:00:25.336Z,5.80
2022-12-20T03:03:14.284Z,5.80
2022-12-20T03:05:47.091Z,6.32
2022-12-20T03:08:17.803Z,5.40
2022-12-20T03:10:45.188Z,6.05
2022-12-20T03:13:14.698Z,6.32
2022-12-20T03:15:48.972Z,6.25
2022-12-20T03:18:16.331Z,6.10
2022-12-20T03:20:47.972Z,6.38
2022-12-20T03:23:15.110Z,6.25
2022-12-20T03:25:42.592Z,6.28
2022-12-20T03:28:14.327Z,5.82
2022-12-20T03:30:41.512Z,5.63
2022-12-20T03:33:13.870Z,6.60
2022-12-20T03:35:41.272Z,5.95
2022-12-20T03:38:12.055Z,5.75
2022-12-20T03:40:39.495Z,6.18
2022-12-20T03:43:07.023Z,5.78
2022-12-20T03:45:34.382Z,5.95
2022-12-20T03:48:01.755Z,5.57
2022-12-20T03:50:31.470Z,5.65
2022-12-20T03:53:01.825Z,5.72
2022-12-20T03:55:29.504Z,5.55
2022-12-20T03:57:56.591Z,5.88
2022-12-20T04:00:28.750Z,5.72
2022-12-20T04:03:09.638Z,5.53
2022-12-20T04:05:39.692Z,5.53
2022-12-20T04:08:07.039Z,5.30
2022-12-20T04:10:54.700Z,5.82
2022-12-20T04:13:22.745Z,5.35
2022-12-20T04:15:56.811Z,5.85
2022-12-20T04:18:30.298Z,5.32
2022-12-20T04:21:01.397Z,5.68
2022-12-20T04:23:30.962Z,5.32
2022-12-20T04:25:59.386Z,5.70
2022-12-20T04:28:29.879Z,5.43
2022-12-20T04:31:00.954Z,6.15
2022-12-20T04:35:58.226Z,6.25
2022-12-20T04:38:25.944Z,6.00
2022-12-20T04:40:57.023Z,6.30
2022-12-20T04:43:29.030Z,5.97
2022-12-20T04:45:59.604Z,6.68
2022-12-20T04:48:55.698Z,6.45
2022-12-20T04:51:17.723Z,5.72
2022-12-20T04:53:49.371Z,6.10
2022-12-20T04:56:56.977Z,5.65
2022-12-20T04:59:29.902Z,5.90
2022-12-20T05:02:02.030Z,5.88
2022-12-20T05:04:44.156Z,6.15
2022-12-20T05:07:14.717Z,5.80
2022-12-20T05:09:47.809Z,5.57
2022-12-20T05:12:18.273Z,6.00
2022-12-20T05:14:46.524Z,5.90
2022-12-20T05:17:16.490Z,5.78
2022-12-20T05:19:44.368Z,5.15
2022-12-20T05:22:31.935Z,5.60
2022-12-20T05:25:31.306Z,5.80
2022-12-20T05:28:03.302Z,6.10
2022-12-20T05:30:34.521Z,5.35
2022-12-20T05:33:04.468Z,6.18
2022-12-20T05:35:35.153Z,5.95
2022-12-20T05:38:09.238Z,5.88
2022-12-20T05:40:37.295Z,5.82
2022-12-20T05:43:04.717Z,5.50
2022-12-20T05:45:39.550Z,5.55
2022-12-20T05:48:14.511Z,5.55
2022-12-20T05:50:46.896Z,5.38
2022-12-20T05:53:29.029Z,5.90
2022-12-20T05:56:01.291Z,5.53
2022-12-20T05:58:37.942Z,5.60
2022-12-20T06:01:08.335Z,5.43
2022-12-20T06:03:40.702Z,5.50
2022-12-20T06:06:14.917Z,5.70
2022-12-20T06:08:45.326Z,5.32
2022-12-20T06:13:51.351Z,6.25
2022-12-20T06:16:20.679Z,5.13
2022-12-20T06:18:56.855Z,5.97
2022-12-20T06:21:28.456Z,5.35
2022-12-20T06:23:58.953Z,5.43
2022-12-20T06:26:26.870Z,5.60
2022-12-20T06:29:02.115Z,5.80
2022-12-20T06:31:36.841Z,5.45
2022-12-20T06:34:04.371Z,5.50
2022-12-20T06:36:37.791Z,5.63
2022-12-20T06:39:09.950Z,5.30
2022-12-20T06:41:44.814Z,5.25
2022-12-20T06:44:12.605Z,5.88
2022-12-20T06:46:39.887Z,5.93
2022-12-20T06:49:08.398Z,5.10
2022-12-20T06:51:37.906Z,4.85
2022-12-20T06:54:08.028Z,5.30
2022-12-20T06:56:41.722Z,5.35
2022-12-20T07:01:38.167Z,5.25
2022-12-20T07:04:05.479Z,5.38
2022-12-20T07:06:34.984Z,4.90
2022-12-20T07:09:02.381Z,4.68
2022-12-20T07:11:29.604Z,5.30
2022-12-20T07:13:57.846Z,5.20
2022-12-20T07:16:27.976Z,4.97
2022-12-20T07:18:55.420Z,5.43
2022-12-20T07:21:22.749Z,5.10
2022-12-20T07:23:52.153Z,4.93
2022-12-20T07:26:25.652Z,5.43
2022-12-20T07:28:53.398Z,5.50
2022-12-20T07:31:20.877Z,5.50
2022-12-20T07:33:50.510Z,5.35
2022-12-20T07:36:17.960Z,5.22
2022-12-20T07:38:45.250Z,5.28
2022-12-20T07:41:15.235Z,5.28
2022-12-20T07:43:45.118Z,5.15
2022-12-20T07:46:15.834Z,5.75
2022-12-20T07:48:44.587Z,5.25
2022-12-20T07:51:19.049Z,5.35
2022-12-20T07:53:50.158Z,4.93
2022-12-20T07:56:21.115Z,5.20
2022-12-20T07:58:55.306Z,5.43
2022-12-20T08:01:22.681Z,4.80
2022-12-20T08:04:03.455Z,5.03
2022-12-20T08:06:36.355Z,4.82
2022-12-20T08:09:06.105Z,5.07
2022-12-20T08:11:38.324Z,4.75
2022-12-20T08:14:06.767Z,4.75
2022-12-20T08:16:36.825Z,4.93
2022-12-20T08:19:04.311Z,4.57
2022-12-20T08:21:31.915Z,4.90
2022-12-20T08:24:01.550Z,4.63
2022-12-20T08:26:28.913Z,4.80
2022-12-20T08:28:58.531Z,5.15
2022-12-20T08:31:25.796Z,5.13
2022-12-20T08:33:55.195Z,4.35
2022-12-20T08:36:22.580Z,4.70
2022-12-20T08:38:52.137Z,4.47
2022-12-20T08:41:19.558Z,4.97
2022-12-20T08:43:53.507Z,5.38
2022-12-20T08:46:25.495Z,4.88
2022-12-20T08:48:53.197Z,5.10
2022-12-20T08:51:22.595Z,5.65
2022-12-20T08:53:49.887Z,5.40
2022-12-20T08:56:24.380Z,4.75
2022-12-20T08:58:51.732Z,4.60
2022-12-20T09:01:22.071Z,4.63
2022-12-20T09:03:49.739Z,5.25
2022-12-20T09:06:20.760Z,5.18
2022-12-20T09:08:48.593Z,4.85
2022-12-20T09:11:22.044Z,5.30
2022-12-20T09:13:51.807Z,4.85
2022-12-20T09:16:21.803Z,5.07
2022-12-20T09:18:57.726Z,5.18
2022-12-20T09:21:30.742Z,5.45
2022-12-20T09:23:58.197Z,4.93
2022-12-20T09:26:27.545Z,5.03
2022-12-20T09:28:55.033Z,5.47
2022-12-20T09:31:24.519Z,5.25
2022-12-20T09:33:59.695Z,4.90
2022-12-20T09:36:30.211Z,5.18
2022-12-20T09:38:57.909Z,5.47
2022-12-20T09:41:31.449Z,5.35
2022-12-20T09:44:02.375Z,5.78
2022-12-20T09:46:30.309Z,5.55
2022-12-20T09:49:00.963Z,5.30
2022-12-20T09:52:12.806Z,5.60
2022-12-20T09:57:20.784Z,5.55
2022-12-20T09:59:50.071Z,5.32
2022-12-20T10:02:55.727Z,5.97
2022-12-20T10:05:38.683Z,5.30
2022-12-20T10:08:24.593Z,5.20
2022-12-20T10:10:56.176Z,5.13
2022-12-20T10:13:58.647Z,5.40
2022-12-20T10:16:44.316Z,5.95
2022-12-20T10:19:55.558Z,4.75
2022-12-20T10:23:15.319Z,5.47
2022-12-20T10:25:47.227Z,5.28
2022-12-20T10:28:18.868Z,5.68
2022-12-20T10:30:48.644Z,5.63
2022-12-20T10:33:25.623Z,4.93
2022-12-20T10:35:55.278Z,5.60
2022-12-20T10:38:24.061Z,5.20
2022-12-20T10:41:21.296Z,5.13
2022-12-20T10:44:26.761Z,4.82
2022-12-20T10:47:01.397Z,5.05
2022-12-20T10:49:31.208Z,4.97
2022-12-20T10:52:09.292Z,5.22
2022-12-20T10:54:43.540Z,5.70
2022-12-20T10:57:26.451Z,6.53
2022-12-20T11:00:03.123Z,5.57
2022-12-20T11:02:41.437Z,6.32
2022-12-20T11:05:10.421Z,5.35
2022-12-20T11:08:41.280Z,4.35
2022-12-20T11:10:43.207Z,4.95
2022-12-20T11:13:31.198Z,5.03
2022-12-20T11:16:01.790Z,4.43
2022-12-20T11:18:55.389Z,4.30
2022-12-20T11:21:47.782Z,5.00
2022-12-20T11:24:35.849Z,4.75
2022-12-20T11:27:23.498Z,4.13
2022-12-20T11:30:09.781Z,3.90
2022-12-20T11:33:06.265Z,4.55
2022-12-20T11:35:53.720Z,4.30
2022-12-20T11:38:52.835Z,4.50
2022-12-20T11:41:41.719Z,4.97
2022-12-20T11:44:41.325Z,4.93
2022-12-20T11:47:33.150Z,4.60
2022-12-20T11:50:29.700Z,4.97
2022-12-20T11:53:02.022Z,5.20
2022-12-20T11:55:36.125Z,4.93
2022-12-20T11:58:18.636Z,4.25
2022-12-20T12:00:59.009Z,4.70
2022-12-20T12:03:42.077Z,5.03
2022-12-20T12:06:33.851Z,5.35
2022-12-20T12:09:20.055Z,4.90
2022-12-20T12:12:07.778Z,5.32
2022-12-20T12:14:42.988Z,5.38
2022-12-20T12:17:32.654Z,5.35
2022-12-20T12:20:17.929Z,5.60
2022-12-20T12:22:50.835Z,6.30
2022-12-20T12:25:19.162Z,5.35
2022-12-20T12:27:46.355Z,5.30
2022-12-20T12:30:17.539Z,5.40
2022-12-20T12:33:07.706Z,5.30
2022-12-20T12:36:01.338Z,6.32
2022-12-20T12:38:39.582Z,4.97
2022-12-20T12:41:49.031Z,4.43
2022-12-20T12:44:19.321Z,5.05
2022-12-20T12:46:57.250Z,4.85
2022-12-20T12:49:28.622Z,5.30
2022-12-20T12:52:00.812Z,5.10
2022-12-20T12:54:29.625Z,5.07
2022-12-20T12:57:03.319Z,5.03
2022-12-20T12:59:33.508Z,4.30
2022-12-20T13:02:03.997Z,4.18
2022-12-20T13:04:57.608Z,4.32
2022-12-20T13:07:33.922Z,4.80
2022-12-20T13:10:29.460Z,4.82
2022-12-20T13:12:59.879Z,4.50
2022-12-20T13:15:27.174Z,4.90
2022-12-20T13:18:01.905Z,4.05
2022-12-20T13:20:34.685Z,4.47
2022-12-20T13:23:10.379Z,4.40
2022-12-20T13:25:41.907Z,4.25
2022-12-20T13:28:24.620Z,4.13
2022-12-20T13:31:01.512Z,4.78
2022-12-20T13:33:54.202Z,4.25
2022-12-20T13:36:36.308Z,5.07
2022-12-20T13:39:21.763Z,4.47
2022-12-20T13:41:53.571Z,4.18
2022-12-20T13:44:35.408Z,4.65
2022-12-20T13:47:14.868Z,4.20
2022-12-20T13:49:44.796Z,4.25
2022-12-20T13:52:12.097Z,4.38
2022-12-20T13:54:48.806Z,4.65
2022-12-20T13:57:44.856Z,4.38
2022-12-20T14:00:18.125Z,4.15
2022-12-20T14:02:46.002Z,3.88
2022-12-20T14:05:16.101Z,4.20
2022-12-20T14:07:48.131Z,4.25
2022-12-20T14:10:25.231Z,4.38
2022-12-20T14:12:56.157Z,4.88
2022-12-20T14:15:31.409Z,4.50
2022-12-20T14:18:16.753Z,4.43
2022-12-20T14:20:45.657Z,4.50
2022-12-20T14:23:42.121Z,4.13
2022-12-20T14:26:16.654Z,3.75
2022-12-20T14:28:48.118Z,4.22
2022-12-20T14:31:25.211Z,3.92
2022-12-20T14:34:16.596Z,4.45
2022-12-20T14:36:46.864Z,4.10
2022-12-20T14:39:29.723Z,4.00
2022-12-20T14:42:13.020Z,5.03
2022-12-20T14:44:47.213Z,4.28
2022-12-20T14:47:26.034Z,3.80
2022-12-20T14:50:04.768Z,4.05
2022-12-20T14:52:41.986Z,4.03
2022-12-20T14:55:14.613Z,4.07
2022-12-20T14:57:51.413Z,4.17
2022-12-20T15:00:18.720Z,3.83
2022-12-20T15:03:01.807Z,4.65
2022-12-20T15:05:35.200Z,3.88
2022-12-20T15:08:20.343Z,3.88
2022-12-20T15:11:23.114Z,4.07
2022-12-20T15:13:54.544Z,4.30
2022-12-20T15:16:26.799Z,3.70
2022-12-20T15:19:01.946Z,3.72
2022-12-20T15:21:43.724Z,4.45
2022-12-20T15:24:14.736Z,3.83
2022-12-20T15:26:46.014Z,3.90
2022-12-20T15:29:19.083Z,3.90
2022-12-20T15:31:53.385Z,3.88
2022-12-20T15:34:34.299Z,3.90
2022-12-20T15:37:05.084Z,4.10
2022-12-20T15:39:33.903Z,4.00
2022-12-20T15:42:04.227Z,3.80
2022-12-20T15:44:32.324Z,4.18
2022-12-20T15:46:59.818Z,3.72
2022-12-20T15:49:31.474Z,4.30
2022-12-20T15:51:59.421Z,4.10
2022-12-20T15:54:34.681Z,4.47
2022-12-20T15:57:09.306Z,4.15
2022-12-20T16:02:32.529Z,3.58
2022-12-20T16:05:00.396Z,3.80
2022-12-20T16:07:27.992Z,4.05
2022-12-20T16:09:55.877Z,3.80
2022-12-20T16:12:26.935Z,3.50
2022-12-20T16:14:55.361Z,3.40
2022-12-20T16:17:24.114Z,4.13
2022-12-20T16:19:56.033Z,3.97
2022-12-20T16:22:26.583Z,4.13
2022-12-20T16:24:57.256Z,3.72
2022-12-20T16:27:24.719Z,3.47
2022-12-20T16:29:51.902Z,3.33
2022-12-20T16:32:21.759Z,3.45
2022-12-20T16:34:50.174Z,3.55
2022-12-20T16:37:17.532Z,4.03
2022-12-20T16:39:45.479Z,4.43
2022-12-20T16:42:22.295Z,3.90
2022-12-20T16:44:55.151Z,3.60
2022-12-20T16:47:22.532Z,3.80
2022-12-20T16:49:53.756Z,3.50
2022-12-20T16:52:23.710Z,3.63
2022-12-20T16:54:51.974Z,3.63
2022-12-20T16:57:21.998Z,3.20
2022-12-20T16:59:49.449Z,3.80
2022-12-20T17:02:28.428Z,3.65
2022-12-20T17:04:56.541Z,3.50
2022-12-20T17:07:24.266Z,3.85
2022-12-20T17:09:51.965Z,3.83
2022-12-20T17:12:23.032Z,3.95
2022-12-20T17:14:50.576Z,4.07
2022-12-20T17:17:17.866Z,4.03
2022-12-20T17:19:47.558Z,4.00
2022-12-20T17:22:23.670Z,4.15
2022-12-20T17:24:54.125Z,4.15
2022-12-20T17:27:23.627Z,4.32
2022-12-20T17:29:55.566Z,4.13
2022-12-20T17:32:27.011Z,4.25
2022-12-20T17:37:24.533Z,3.97
2022-12-20T17:39:54.267Z,4.20
2022-12-20T17:42:30.609Z,4.00
2022-12-20T17:44:58.480Z,4.18
2022-12-20T17:47:25.799Z,4.43
2022-12-20T17:49:55.671Z,4.07
2022-12-20T17:52:22.897Z,3.85
2022-12-20T17:54:50.486Z,3.97
2022-12-20T17:57:19.522Z,3.70
2022-12-20T17:59:49.230Z,4.00
2022-12-20T18:02:22.167Z,3.47
2022-12-20T18:04:52.339Z,4.25
2022-12-20T18:07:19.785Z,3.90
2022-12-20T18:09:49.917Z,3.58
2022-12-20T18:12:17.726Z,4.32
2022-12-20T18:14:47.863Z,4.20
2022-12-20T18:17:17.658Z,3.88
2022-12-20T18:19:45.597Z,4.38
2022-12-20T18:22:13.916Z,3.83
2022-12-20T18:24:41.143Z,4.00
2022-12-20T18:27:08.411Z,3.80
2022-12-20T18:29:35.551Z,4.28
2022-12-20T18:32:06.277Z,3.97
2022-12-20T18:34:36.636Z,4.10
2022-12-20T18:37:06.108Z,3.90
2022-12-20T18:39:36.245Z,4.68
2022-12-20T18:42:09.498Z,3.78
2022-12-20T18:44:36.952Z,3.80
2022-12-20T18:47:05.271Z,3.80
2022-12-20T18:49:33.569Z,4.13
2022-12-20T18:52:00.826Z,4.50
2022-12-20T18:54:30.210Z,3.83
2022-12-20T18:56:58.569Z,3.80
2022-12-20T18:59:28.813Z,3.50
2022-12-20T19:01:56.459Z,3.92
2022-12-20T19:04:25.973Z,3.90
2022-12-20T19:06:55.055Z,3.92
2022-12-20T19:09:27.428Z,4.03
2022-12-20T19:11:57.330Z,4.20
2022-12-20T19:14:25.845Z,3.97
2022-12-20T19:16:53.306Z,4.00
2022-12-20T19:19:20.765Z,3.90
2022-12-20T19:21:50.379Z,4.15
2022-12-20T19:24:17.802Z,4.15
2022-12-20T19:26:44.994Z,4.43
2022-12-20T19:29:12.304Z,4.13
2022-12-20T19:31:40.069Z,3.70
2022-12-20T19:34:12.331Z,3.75
2022-12-20T19:36:45.535Z,3.65
2022-12-20T19:41:55.089Z,3.85
2022-12-20T19:44:35.479Z,3.78
2022-12-20T19:47:05.783Z,3.78
2022-12-20T19:49:36.607Z,3.63
2022-12-20T19:52:05.772Z,4.60
2022-12-20T19:54:43.076Z,3.90
2022-12-20T19:57:10.324Z,4.18
2022-12-20T19:59:37.673Z,4.75
2022-12-20T20:02:14.980Z,4.82
2022-12-20T20:04:42.920Z,5.13
2022-12-20T20:07:17.503Z,5.85
2022-12-20T20:09:44.828Z,5.57
2022-12-20T20:12:12.527Z,6.53
2022-12-20T20:14:44.619Z,7.68
2022-12-20T20:17:12.153Z,7.32
2022-12-20T20:19:40.577Z,6.88
2022-12-20T20:22:10.647Z,8.02
2022-12-20T20:24:37.956Z,8.50
2022-12-20T20:27:05.567Z,8.77
2022-12-20T20:29:36.250Z,8.18
2022-12-20T20:32:07.502Z,8.43
2022-12-20T20:34:36.818Z,8.10
2022-12-20T20:37:09.180Z,8.80
2022-12-20T20:39:43.740Z,8.35
2022-12-20T20:42:15.875Z,8.68
2022-12-20T20:44:46.252Z,8.25
2022-12-20T20:47:13.424Z,8.68
2022-12-20T20:49:41.849Z,7.88
2022-12-20T20:52:10.406Z,9.07
2022-12-20T20:54:37.729Z,8.35
2022-12-20T20:57:04.876Z,8.60
2022-12-20T20:59:37.102Z,8.77
2022-12-20T21:02:04.594Z,8.60
2022-12-20T21:04:32.016Z,8.35
2022-12-20T21:06:59.353Z,8.80
2022-12-20T21:09:29.007Z,8.15
2022-12-20T21:12:01.254Z,7.97
2022-12-20T21:15:12.297Z,8.35
2022-12-20T21:17:20.781Z,8.25
2022-12-20T21:19:48.869Z,8.80
2022-12-20T21:22:16.027Z,8.85
2022-12-20T21:24:45.567Z,8.57
2022-12-20T21:27:12.872Z,8.15
2022-12-20T21:29:43.549Z,8.57
2022-12-20T21:32:15.815Z,8.38
2022-12-20T21:34:43.358Z,8.15
2022-12-20T21:37:10.474Z,7.90
2022-12-20T21:39:40.048Z,8.65
2022-12-20T21:42:07.363Z,8.20
2022-12-20T21:44:36.719Z,8.43
2022-12-20T21:47:06.427Z,8.73
2022-12-20T21:49:35.622Z,8.07
2022-12-20T21:52:05.197Z,8.73
2022-12-20T21:54:32.317Z,7.05
2022-12-20T21:56:59.944Z,8.07
2022-12-20T21:59:31.936Z,7.70
2022-12-20T22:02:03.891Z,7.75
2022-12-20T22:04:32.456Z,8.10
2022-12-20T22:07:01.881Z,8.77
2022-12-20T22:09:31.174Z,7.78
2022-12-20T22:12:00.909Z,7.55
2022-12-20T22:14:30.472Z,7.65
2022-12-20T22:16:57.672Z,7.35
2022-12-20T22:19:25.058Z,7.00
2022-12-20T22:21:57.632Z,8.63
2022-12-20T22:26:54.769Z,7.22
2022-12-20T22:29:26.584Z,7.90
2022-12-20T22:31:53.712Z,7.78
2022-12-20T22:34:21.310Z,7.90
2022-12-20T22:36:48.421Z,7.15
2022-12-20T22:39:15.707Z,7.00
2022-12-20T22:41:42.903Z,7.05
2022-12-20T22:44:10.052Z,7.55
2022-12-20T22:46:37.599Z,7.68
2022-12-20T22:49:07.053Z,7.10
2022-12-20T22:51:34.404Z,7.18
2022-12-20T22:54:05.273Z,8.60
2022-12-20T22:56:34.946Z,7.22
2022-12-20T22:59:02.135Z,7.00
2022-12-20T23:01:30.037Z,6.72
2022-12-20T23:03:59.834Z,6.60
2022-12-20T23:06:27.159Z,6.72
2022-12-20T23:08:54.371Z,6.63
2022-12-20T23:11:43.656Z,6.32
2022-12-20T23:14:32.394Z,6.25
2022-12-20T23:17:02.373Z,6.88
2022-12-20T23:19:54.041Z,6.57
2022-12-20T23:22:38.462Z,6.18
2022-12-20T23:25:12.228Z,6.47
2022-12-20T23:27:43.870Z,6.35
2022-12-20T23:30:15.721Z,6.03
2022-12-20T23:32:46.462Z,6.28
2022-12-20T23:35:16.877Z,5.82
2022-12-20T23:37:46.548Z,6.55
2022-12-20T23:40:19.202Z,6.35
2022-12-20T23:42:49.765Z,6.82
2022-12-20T23:45:17.057Z,5.90
2022-12-20T23:47:46.810Z,5.80
2022-12-20T23:50:16.258Z,6.13
2022-12-20T23:52:45.874Z,5.68
2022-12-20T23:55:15.618Z,6.18
2022-12-20T23:57:43.164Z,6.13
